sensor_id;sensor_type;location;lat;lon;timestamp;temperature;humidity
32201;DHT22;18701;45.588;5.288;2023-02-12T00:00:39;1.90;99.90
32201;DHT22;18701;45.588;5.288;2023-02-12T00:03:05;1.90;99.90
32201;DHT22;18701;45.588;5.288;2023-02-12T00:05:31;1.70;99.90
32201;DHT22;18701;45.588;5.288;2023-02-12T00:07:57;1.90;99.90
32201;DHT22;18701;45.588;5.288;2023-02-12T00:10:23;2.00;99.90
32201;DHT22;18701;45.588;5.288;2023-02-12T00:12:49;2.00;99.90
32201;DHT22;18701;45.588;5.288;2023-02-12T00:15:15;1.80;99.90
32201;DHT22;18701;45.588;5.288;2023-02-12T00:17:40;1.70;99.90
32201;DHT22;18701;45.588;5.288;2023-02-12T00:20:06;1.60;99.90
32201;DHT22;18701;45.588;5.288;2023-02-12T00:22:32;1.80;99.90
32201;DHT22;18701;45.588;5.288;2023-02-12T00:24:58;1.80;99.90
32201;DHT22;18701;45.588;5.288;2023-02-12T00:27:24;1.70;99.90
32201;DHT22;18701;45.588;5.288;2023-02-12T00:29:49;1.60;99.90
32201;DHT22;18701;45.588;5.288;2023-02-12T00:32:15;1.50;99.90
32201;DHT22;18701;45.588;5.288;2023-02-12T00:34:46;1.60;99.90
32201;DHT22;18701;45.588;5.288;2023-02-12T00:37:12;1.80;99.90
32201;DHT22;18701;45.588;5.288;2023-02-12T00:39:38;1.90;99.90
32201;DHT22;18701;45.588;5.288;2023-02-12T00:42:04;1.90;99.90
32201;DHT22;18701;45.588;5.288;2023-02-12T00:44:29;1.70;99.90
32201;DHT22;18701;45.588;5.288;2023-02-12T00:46:55;1.60;99.90
32201;DHT22;18701;45.588;5.288;2023-02-12T00:49:22;1.80;99.90
32201;DHT22;18701;45.588;5.288;2023-02-12T00:51:48;1.80;99.90
32201;DHT22;18701;45.588;5.288;2023-02-12T00:54:14;1.80;99.90
32201;DHT22;18701;45.588;5.288;2023-02-12T00:56:39;1.70;99.90
32201;DHT22;18701;45.588;5.288;2023-02-12T00:59:05;1.60;99.90
32201;DHT22;18701;45.588;5.288;2023-02-12T01:01:30;1.70;99.90
32201;DHT22;18701;45.588;5.288;2023-02-12T01:03:56;1.60;99.90
32201;DHT22;18701;45.588;5.288;2023-02-12T01:06:22;1.60;99.90
32201;DHT22;18701;45.588;5.288;2023-02-12T01:08:51;1.60;99.90
32201;DHT22;18701;45.588;5.288;2023-02-12T01:11:17;1.70;99.90
32201;DHT22;18701;45.588;5.288;2023-02-12T01:13:43;1.60;99.90
32201;DHT22;18701;45.588;5.288;2023-02-12T01:16:23;1.70;99.90
32201;DHT22;18701;45.588;5.288;2023-02-12T01:18:50;1.50;99.90
32201;DHT22;18701;45.588;5.288;2023-02-12T01:21:21;1.60;99.90
32201;DHT22;18701;45.588;5.288;2023-02-12T01:23:48;1.50;99.90
32201;DHT22;18701;45.588;5.288;2023-02-12T01:26:15;1.50;99.90
32201;DHT22;18701;45.588;5.288;2023-02-12T01:28:43;1.50;99.90
32201;DHT22;18701;45.588;5.288;2023-02-12T01:31:16;1.30;99.90
32201;DHT22;18701;45.588;5.288;2023-02-12T01:33:42;1.30;99.90
32201;DHT22;18701;45.588;5.288;2023-02-12T01:36:09;1.10;99.90
32201;DHT22;18701;45.588;5.288;2023-02-12T01:38:35;1.20;99.90
32201;DHT22;18701;45.588;5.288;2023-02-12T01:41:06;1.20;99.90
32201;DHT22;18701;45.588;5.288;2023-02-12T01:43:33;1.20;99.90
32201;DHT22;18701;45.588;5.288;2023-02-12T01:45:59;1.30;99.90
32201;DHT22;18701;45.588;5.288;2023-02-12T01:48:28;1.30;99.90
32201;DHT22;18701;45.588;5.288;2023-02-12T01:50:55;1.30;99.90
32201;DHT22;18701;45.588;5.288;2023-02-12T01:53:24;1.20;99.90
32201;DHT22;18701;45.588;5.288;2023-02-12T01:55:56;1.00;99.90
32201;DHT22;18701;45.588;5.288;2023-02-12T01:58:23;1.30;99.90
32201;DHT22;18701;45.588;5.288;2023-02-12T02:00:51;1.30;99.90
32201;DHT22;18701;45.588;5.288;2023-02-12T02:03:17;1.40;99.90
32201;DHT22;18701;45.588;5.288;2023-02-12T02:06:03;1.20;99.90
32201;DHT22;18701;45.588;5.288;2023-02-12T02:08:32;1.30;99.90
32201;DHT22;18701;45.588;5.288;2023-02-12T02:10:58;1.40;99.90
32201;DHT22;18701;45.588;5.288;2023-02-12T02:13:24;1.40;99.90
32201;DHT22;18701;45.588;5.288;2023-02-12T02:16:19;1.40;99.90
32201;DHT22;18701;45.588;5.288;2023-02-12T02:19:01;1.10;99.90
32201;DHT22;18701;45.588;5.288;2023-02-12T02:25:07;1.20;99.90
32201;DHT22;18701;45.588;5.288;2023-02-12T02:27:48;0.90;99.90
32201;DHT22;18701;45.588;5.288;2023-02-12T02:30:45;0.80;99.90
32201;DHT22;18701;45.588;5.288;2023-02-12T02:36:36;0.70;99.90
32201;DHT22;18701;45.588;5.288;2023-02-12T02:44:23;0.90;99.90
32201;DHT22;18701;45.588;5.288;2023-02-12T02:46:51;1.00;99.90
32201;DHT22;18701;45.588;5.288;2023-02-12T02:49:31;1.00;99.90
32201;DHT22;18701;45.588;5.288;2023-02-12T02:52:04;0.80;99.90
32201;DHT22;18701;45.588;5.288;2023-02-12T02:54:36;0.80;99.90
32201;DHT22;18701;45.588;5.288;2023-02-12T02:57:09;0.90;99.90
32201;DHT22;18701;45.588;5.288;2023-02-12T02:59:41;0.80;99.90
32201;DHT22;18701;45.588;5.288;2023-02-12T03:02:20;0.90;99.90
32201;DHT22;18701;45.588;5.288;2023-02-12T03:04:51;1.00;99.90
32201;DHT22;18701;45.588;5.288;2023-02-12T03:07:28;0.90;99.90
32201;DHT22;18701;45.588;5.288;2023-02-12T03:10:02;0.90;99.90
32201;DHT22;18701;45.588;5.288;2023-02-12T03:12:42;0.80;99.90
32201;DHT22;18701;45.588;5.288;2023-02-12T03:15:17;0.90;99.90
32201;DHT22;18701;45.588;5.288;2023-02-12T03:17:47;0.90;99.90
32201;DHT22;18701;45.588;5.288;2023-02-12T03:22:47;0.80;99.90
32201;DHT22;18701;45.588;5.288;2023-02-12T03:25:27;0.60;99.90
32201;DHT22;18701;45.588;5.288;2023-02-12T03:28:15;0.40;99.90
32201;DHT22;18701;45.588;5.288;2023-02-12T03:30:47;0.50;99.90
32201;DHT22;18701;45.588;5.288;2023-02-12T03:36:25;0.50;99.90
32201;DHT22;18701;45.588;5.288;2023-02-12T03:38:56;0.40;99.90
32201;DHT22;18701;45.588;5.288;2023-02-12T03:41:33;0.20;99.90
32201;DHT22;18701;45.588;5.288;2023-02-12T03:44:04;0.40;99.90
32201;DHT22;18701;45.588;5.288;2023-02-12T03:46:49;0.50;99.90
32201;DHT22;18701;45.588;5.288;2023-02-12T03:49:38;0.50;99.90
32201;DHT22;18701;45.588;5.288;2023-02-12T03:52:09;0.70;99.90
32201;DHT22;18701;45.588;5.288;2023-02-12T03:54:34;0.70;99.90
32201;DHT22;18701;45.588;5.288;2023-02-12T03:57:09;0.60;99.90
32201;DHT22;18701;45.588;5.288;2023-02-12T03:59:37;0.60;99.90
32201;DHT22;18701;45.588;5.288;2023-02-12T04:02:04;0.40;99.90
32201;DHT22;18701;45.588;5.288;2023-02-12T04:04:30;0.40;99.90
32201;DHT22;18701;45.588;5.288;2023-02-12T04:06:56;0.30;99.90
32201;DHT22;18701;45.588;5.288;2023-02-12T04:09:23;0.40;99.90
32201;DHT22;18701;45.588;5.288;2023-02-12T04:12:14;0.40;99.90
32201;DHT22;18701;45.588;5.288;2023-02-12T04:17:43;0.40;99.90
32201;DHT22;18701;45.588;5.288;2023-02-12T04:34:31;0.30;99.90
32201;DHT22;18701;45.588;5.288;2023-02-12T04:37:17;0.40;99.90
32201;DHT22;18701;45.588;5.288;2023-02-12T04:39:44;0.40;99.90
32201;DHT22;18701;45.588;5.288;2023-02-12T04:42:10;0.30;99.90
32201;DHT22;18701;45.588;5.288;2023-02-12T04:44:38;0.30;99.90
32201;DHT22;18701;45.588;5.288;2023-02-12T04:47:04;0.20;99.90
32201;DHT22;18701;45.588;5.288;2023-02-12T04:49:30;0.30;99.90
32201;DHT22;18701;45.588;5.288;2023-02-12T04:51:56;0.30;99.90
32201;DHT22;18701;45.588;5.288;2023-02-12T04:54:22;0.30;99.90
32201;DHT22;18701;45.588;5.288;2023-02-12T04:56:49;0.30;99.90
32201;DHT22;18701;45.588;5.288;2023-02-12T04:59:15;0.10;99.90
32201;DHT22;18701;45.588;5.288;2023-02-12T05:01:41;0.10;99.90
32201;DHT22;18701;45.588;5.288;2023-02-12T05:04:09;0.30;99.90
32201;DHT22;18701;45.588;5.288;2023-02-12T05:06:35;0.20;99.90
32201;DHT22;18701;45.588;5.288;2023-02-12T05:09:01;0.00;99.90
32201;DHT22;18701;45.588;5.288;2023-02-12T05:11:27;0.10;99.90
32201;DHT22;18701;45.588;5.288;2023-02-12T05:13:53;0.10;99.90
32201;DHT22;18701;45.588;5.288;2023-02-12T05:16:20;0.00;99.90
32201;DHT22;18701;45.588;5.288;2023-02-12T05:18:46;0.00;99.90
32201;DHT22;18701;45.588;5.288;2023-02-12T05:21:12;0.00;99.90
32201;DHT22;18701;45.588;5.288;2023-02-12T05:23:39;0.10;99.90
32201;DHT22;18701;45.588;5.288;2023-02-12T05:26:11;0.10;99.90
32201;DHT22;18701;45.588;5.288;2023-02-12T05:28:37;-0.10;99.90
32201;DHT22;18701;45.588;5.288;2023-02-12T05:31:06;0.00;99.90
32201;DHT22;18701;45.588;5.288;2023-02-12T05:33:32;0.00;99.90
32201;DHT22;18701;45.588;5.288;2023-02-12T05:36:09;0.00;99.90
32201;DHT22;18701;45.588;5.288;2023-02-12T05:38:35;-0.20;99.90
32201;DHT22;18701;45.588;5.288;2023-02-12T05:41:17;-0.30;99.90
32201;DHT22;18701;45.588;5.288;2023-02-12T05:43:43;-0.10;99.90
32201;DHT22;18701;45.588;5.288;2023-02-12T05:46:09;-0.30;99.90
32201;DHT22;18701;45.588;5.288;2023-02-12T05:48:36;-0.20;99.90
32201;DHT22;18701;45.588;5.288;2023-02-12T05:51:08;-0.30;99.90
32201;DHT22;18701;45.588;5.288;2023-02-12T05:53:34;-0.40;99.90
32201;DHT22;18701;45.588;5.288;2023-02-12T05:56:11;-0.40;99.90
32201;DHT22;18701;45.588;5.288;2023-02-12T05:58:38;-0.40;99.90
32201;DHT22;18701;45.588;5.288;2023-02-12T06:01:19;-0.30;99.90
32201;DHT22;18701;45.588;5.288;2023-02-12T06:03:45;-0.20;99.90
32201;DHT22;18701;45.588;5.288;2023-02-12T06:06:11;-0.20;99.90
32201;DHT22;18701;45.588;5.288;2023-02-12T06:08:37;0.00;99.90
32201;DHT22;18701;45.588;5.288;2023-02-12T06:11:09;0.00;99.90
32201;DHT22;18701;45.588;5.288;2023-02-12T06:13:35;-0.10;99.90
32201;DHT22;18701;45.588;5.288;2023-02-12T06:16:01;-0.10;99.90
32201;DHT22;18701;45.588;5.288;2023-02-12T06:18:27;0.00;99.90
32201;DHT22;18701;45.588;5.288;2023-02-12T06:20:53;-0.10;99.90
32201;DHT22;18701;45.588;5.288;2023-02-12T06:23:25;-0.10;99.90
32201;DHT22;18701;45.588;5.288;2023-02-12T06:25:54;0.00;99.90
32201;DHT22;18701;45.588;5.288;2023-02-12T06:28:20;-0.10;99.90
32201;DHT22;18701;45.588;5.288;2023-02-12T06:30:45;-0.10;99.90
32201;DHT22;18701;45.588;5.288;2023-02-12T06:33:11;-0.40;99.90
32201;DHT22;18701;45.588;5.288;2023-02-12T06:35:37;-0.20;99.90
32201;DHT22;18701;45.588;5.288;2023-02-12T06:38:03;-0.30;99.90
32201;DHT22;18701;45.588;5.288;2023-02-12T06:40:29;-0.20;99.90
32201;DHT22;18701;45.588;5.288;2023-02-12T06:42:55;-0.30;99.90
32201;DHT22;18701;45.588;5.288;2023-02-12T06:45:21;-0.30;99.90
32201;DHT22;18701;45.588;5.288;2023-02-12T06:47:46;-0.30;99.90
32201;DHT22;18701;45.588;5.288;2023-02-12T06:50:12;-0.20;99.90
32201;DHT22;18701;45.588;5.288;2023-02-12T06:52:37;-0.10;99.90
32201;DHT22;18701;45.588;5.288;2023-02-12T06:55:03;-0.40;99.90
32201;DHT22;18701;45.588;5.288;2023-02-12T06:57:29;-0.50;99.90
32201;DHT22;18701;45.588;5.288;2023-02-12T06:59:55;-0.40;99.90
32201;DHT22;18701;45.588;5.288;2023-02-12T07:02:21;-0.40;99.90
32201;DHT22;18701;45.588;5.288;2023-02-12T07:04:46;-0.40;99.90
32201;DHT22;18701;45.588;5.288;2023-02-12T07:07:12;-0.20;99.90
32201;DHT22;18701;45.588;5.288;2023-02-12T07:09:38;-0.20;99.90
32201;DHT22;18701;45.588;5.288;2023-02-12T07:12:04;-0.20;99.90
32201;DHT22;18701;45.588;5.288;2023-02-12T07:14:29;-0.20;99.90
32201;DHT22;18701;45.588;5.288;2023-02-12T07:16:55;-0.20;99.90
32201;DHT22;18701;45.588;5.288;2023-02-12T07:19:21;-0.20;99.90
32201;DHT22;18701;45.588;5.288;2023-02-12T07:21:47;-0.20;99.90
32201;DHT22;18701;45.588;5.288;2023-02-12T07:24:14;-0.40;99.90
32201;DHT22;18701;45.588;5.288;2023-02-12T07:26:40;-0.30;99.90
32201;DHT22;18701;45.588;5.288;2023-02-12T07:29:06;-0.30;99.90
32201;DHT22;18701;45.588;5.288;2023-02-12T07:31:32;-0.20;99.90
32201;DHT22;18701;45.588;5.288;2023-02-12T07:33:59;-0.10;99.90
32201;DHT22;18701;45.588;5.288;2023-02-12T07:36:29;0.00;99.90
32201;DHT22;18701;45.588;5.288;2023-02-12T07:38:56;-0.20;99.90
32201;DHT22;18701;45.588;5.288;2023-02-12T07:41:27;0.00;99.90
32201;DHT22;18701;45.588;5.288;2023-02-12T07:44:13;0.00;99.90
32201;DHT22;18701;45.588;5.288;2023-02-12T07:46:44;0.00;99.90
32201;DHT22;18701;45.588;5.288;2023-02-12T07:49:13;0.10;99.90
32201;DHT22;18701;45.588;5.288;2023-02-12T07:51:39;0.20;99.90
32201;DHT22;18701;45.588;5.288;2023-02-12T07:54:05;0.10;99.90
32201;DHT22;18701;45.588;5.288;2023-02-12T07:56:33;0.10;99.90
32201;DHT22;18701;45.588;5.288;2023-02-12T07:59:02;0.30;99.90
32201;DHT22;18701;45.588;5.288;2023-02-12T08:01:33;0.20;99.90
32201;DHT22;18701;45.588;5.288;2023-02-12T08:04:01;0.30;99.90
32201;DHT22;18701;45.588;5.288;2023-02-12T08:06:30;0.40;99.90
32201;DHT22;18701;45.588;5.288;2023-02-12T08:08:58;0.50;99.90
32201;DHT22;18701;45.588;5.288;2023-02-12T08:11:26;0.60;99.90
32201;DHT22;18701;45.588;5.288;2023-02-12T08:13:55;0.40;99.90
32201;DHT22;18701;45.588;5.288;2023-02-12T08:16:23;0.20;99.90
32201;DHT22;18701;45.588;5.288;2023-02-12T08:18:49;0.60;99.90
32201;DHT22;18701;45.588;5.288;2023-02-12T08:21:21;0.80;99.90
32201;DHT22;18701;45.588;5.288;2023-02-12T08:23:47;0.90;99.90
32201;DHT22;18701;45.588;5.288;2023-02-12T08:26:25;0.90;99.90
32201;DHT22;18701;45.588;5.288;2023-02-12T08:29:03;1.00;99.90
32201;DHT22;18701;45.588;5.288;2023-02-12T08:31:32;1.10;99.90
32201;DHT22;18701;45.588;5.288;2023-02-12T08:33:58;1.20;99.90
32201;DHT22;18701;45.588;5.288;2023-02-12T08:36:29;1.20;99.90
32201;DHT22;18701;45.588;5.288;2023-02-12T08:38:58;1.30;99.90
32201;DHT22;18701;45.588;5.288;2023-02-12T08:41:27;1.40;99.90
32201;DHT22;18701;45.588;5.288;2023-02-12T08:43:57;1.50;99.90
32201;DHT22;18701;45.588;5.288;2023-02-12T08:46:26;1.60;99.90
32201;DHT22;18701;45.588;5.288;2023-02-12T08:48:57;1.70;99.90
32201;DHT22;18701;45.588;5.288;2023-02-12T08:51:25;1.90;99.90
32201;DHT22;18701;45.588;5.288;2023-02-12T08:53:54;2.00;99.90
32201;DHT22;18701;45.588;5.288;2023-02-12T08:56:21;2.10;99.90
32201;DHT22;18701;45.588;5.288;2023-02-12T08:58:47;2.30;99.90
32201;DHT22;18701;45.588;5.288;2023-02-12T09:01:20;2.40;99.90
32201;DHT22;18701;45.588;5.288;2023-02-12T09:03:47;2.40;99.90
32201;DHT22;18701;45.588;5.288;2023-02-12T09:06:14;2.50;99.90
32201;DHT22;18701;45.588;5.288;2023-02-12T09:08:40;2.50;99.90
32201;DHT22;18701;45.588;5.288;2023-02-12T09:11:08;2.60;99.90
32201;DHT22;18701;45.588;5.288;2023-02-12T09:13:34;2.60;99.90
32201;DHT22;18701;45.588;5.288;2023-02-12T09:16:02;2.90;99.90
32201;DHT22;18701;45.588;5.288;2023-02-12T09:18:28;3.20;99.90
32201;DHT22;18701;45.588;5.288;2023-02-12T09:20:54;3.40;99.90
32201;DHT22;18701;45.588;5.288;2023-02-12T09:23:20;3.40;99.90
32201;DHT22;18701;45.588;5.288;2023-02-12T09:25:46;3.40;99.90
32201;DHT22;18701;45.588;5.288;2023-02-12T09:28:13;3.50;99.90
32201;DHT22;18701;45.588;5.288;2023-02-12T09:30:39;3.50;99.90
32201;DHT22;18701;45.588;5.288;2023-02-12T09:33:06;3.80;99.90
32201;DHT22;18701;45.588;5.288;2023-02-12T09:35:39;3.90;99.90
32201;DHT22;18701;45.588;5.288;2023-02-12T09:38:05;4.00;99.90
32201;DHT22;18701;45.588;5.288;2023-02-12T09:43:54;4.00;99.90
32201;DHT22;18701;45.588;5.288;2023-02-12T09:46:52;4.20;99.90
32201;DHT22;18701;45.588;5.288;2023-02-12T09:49:40;4.50;99.90
32201;DHT22;18701;45.588;5.288;2023-02-12T09:52:20;4.80;99.90
32201;DHT22;18701;45.588;5.288;2023-02-12T09:54:47;4.70;99.90
32201;DHT22;18701;45.588;5.288;2023-02-12T09:59:53;4.80;99.90
32201;DHT22;18701;45.588;5.288;2023-02-12T10:02:22;4.80;99.90
32201;DHT22;18701;45.588;5.288;2023-02-12T10:04:49;4.90;99.90
32201;DHT22;18701;45.588;5.288;2023-02-12T10:15:16;4.90;99.90
32201;DHT22;18701;45.588;5.288;2023-02-12T10:18:19;5.00;99.90
32201;DHT22;18701;45.588;5.288;2023-02-12T10:28:40;5.30;99.90
32201;DHT22;18701;45.588;5.288;2023-02-12T10:33:54;5.30;99.90
32201;DHT22;18701;45.588;5.288;2023-02-12T10:38:54;5.30;99.90
32201;DHT22;18701;45.588;5.288;2023-02-12T10:41:24;5.50;99.90
32201;DHT22;18701;45.588;5.288;2023-02-12T10:43:56;5.60;99.90
32201;DHT22;18701;45.588;5.288;2023-02-12T10:46:22;5.70;99.90
32201;DHT22;18701;45.588;5.288;2023-02-12T10:48:52;5.80;99.90
32201;DHT22;18701;45.588;5.288;2023-02-12T10:56:59;6.10;99.90
32201;DHT22;18701;45.588;5.288;2023-02-12T10:59:30;6.40;99.90
32201;DHT22;18701;45.588;5.288;2023-02-12T11:01:56;6.40;99.90
32201;DHT22;18701;45.588;5.288;2023-02-12T11:04:28;6.40;99.90
32201;DHT22;18701;45.588;5.288;2023-02-12T11:09:28;7.00;99.90
32201;DHT22;18701;45.588;5.288;2023-02-12T11:11:54;7.10;99.90
32201;DHT22;18701;45.588;5.288;2023-02-12T11:14:20;7.40;99.90
32201;DHT22;18701;45.588;5.288;2023-02-12T11:16:55;7.60;99.90
32201;DHT22;18701;45.588;5.288;2023-02-12T11:19:26;7.80;99.90
32201;DHT22;18701;45.588;5.288;2023-02-12T11:22:10;7.70;99.90
32201;DHT22;18701;45.588;5.288;2023-02-12T11:24:39;8.10;99.90
32201;DHT22;18701;45.588;5.288;2023-02-12T11:27:25;7.90;99.90
32201;DHT22;18701;45.588;5.288;2023-02-12T11:30:18;8.60;99.90
32201;DHT22;18701;45.588;5.288;2023-02-12T11:32:45;9.60;99.90
32201;DHT22;18701;45.588;5.288;2023-02-12T11:35:17;13.90;98.00
32201;DHT22;18701;45.588;5.288;2023-02-12T11:37:49;16.00;93.50
32201;DHT22;18701;45.588;5.288;2023-02-12T11:40:35;18.00;90.00
32201;DHT22;18701;45.588;5.288;2023-02-12T11:43:04;19.10;84.10
32201;DHT22;18701;45.588;5.288;2023-02-12T11:45:47;21.00;79.40
32201;DHT22;18701;45.588;5.288;2023-02-12T11:48:32;21.10;75.10
32201;DHT22;18701;45.588;5.288;2023-02-12T11:51:01;20.70;73.00
32201;DHT22;18701;45.588;5.288;2023-02-12T11:53:33;21.70;71.40
32201;DHT22;18701;45.588;5.288;2023-02-12T11:56:09;21.60;70.20
32201;DHT22;18701;45.588;5.288;2023-02-12T11:58:35;23.80;68.40
32201;DHT22;18701;45.588;5.288;2023-02-12T12:04:07;23.80;65.80
32201;DHT22;18701;45.588;5.288;2023-02-12T12:06:56;23.50;64.90
32201;DHT22;18701;45.588;5.288;2023-02-12T12:12:12;24.10;64.60
32201;DHT22;18701;45.588;5.288;2023-02-12T12:14:56;23.80;63.40
32201;DHT22;18701;45.588;5.288;2023-02-12T12:18:03;23.70;62.90
32201;DHT22;18701;45.588;5.288;2023-02-12T12:20:56;23.90;63.10
32201;DHT22;18701;45.588;5.288;2023-02-12T12:23:41;23.80;62.30
32201;DHT22;18701;45.588;5.288;2023-02-12T12:26:14;23.60;62.30
32201;DHT22;18701;45.588;5.288;2023-02-12T12:28:44;23.30;62.00
32201;DHT22;18701;45.588;5.288;2023-02-12T12:31:22;23.40;61.10
32201;DHT22;18701;45.588;5.288;2023-02-12T12:34:16;23.30;61.50
32201;DHT22;18701;45.588;5.288;2023-02-12T12:45:02;24.80;60.60
32201;DHT22;18701;45.588;5.288;2023-02-12T12:50:33;24.00;60.90
32201;DHT22;18701;45.588;5.288;2023-02-12T12:55:51;26.10;59.80
32201;DHT22;18701;45.588;5.288;2023-02-12T12:58:48;25.90;59.90
32201;DHT22;18701;45.588;5.288;2023-02-12T13:09:47;26.10;56.60
32201;DHT22;18701;45.588;5.288;2023-02-12T13:18:19;27.70;57.10
32201;DHT22;18701;45.588;5.288;2023-02-12T13:21:12;26.50;56.50
32201;DHT22;18701;45.588;5.288;2023-02-12T13:24:02;26.30;56.60
32201;DHT22;18701;45.588;5.288;2023-02-12T13:26:38;26.90;55.40
32201;DHT22;18701;45.588;5.288;2023-02-12T13:29:15;26.90;55.50
32201;DHT22;18701;45.588;5.288;2023-02-12T13:31:50;25.80;55.10
32201;DHT22;18701;45.588;5.288;2023-02-12T13:34:17;25.80;55.70
32201;DHT22;18701;45.588;5.288;2023-02-12T13:36:44;27.30;56.10
32201;DHT22;18701;45.588;5.288;2023-02-12T13:39:40;27.00;55.90
32201;DHT22;18701;45.588;5.288;2023-02-12T13:42:24;26.30;56.00
32201;DHT22;18701;45.588;5.288;2023-02-12T13:50:36;27.10;56.10
32201;DHT22;18701;45.588;5.288;2023-02-12T13:53:28;27.00;54.80
32201;DHT22;18701;45.588;5.288;2023-02-12T13:56:20;27.70;54.10
32201;DHT22;18701;45.588;5.288;2023-02-12T13:58:52;28.60;54.00
32201;DHT22;18701;45.588;5.288;2023-02-12T14:01:43;28.40;54.40
32201;DHT22;18701;45.588;5.288;2023-02-12T14:14:41;27.50;54.60
32201;DHT22;18701;45.588;5.288;2023-02-12T14:27:52;26.30;55.00
32201;DHT22;18701;45.588;5.288;2023-02-12T14:30:26;26.10;54.20
32201;DHT22;18701;45.588;5.288;2023-02-12T14:35:37;25.00;54.90
32201;DHT22;18701;45.588;5.288;2023-02-12T14:41:23;25.50;56.00
32201;DHT22;18701;45.588;5.288;2023-02-12T14:49:27;25.00;56.40
32201;DHT22;18701;45.588;5.288;2023-02-12T14:52:05;24.70;56.20
32201;DHT22;18701;45.588;5.288;2023-02-12T14:57:30;24.10;56.40
32201;DHT22;18701;45.588;5.288;2023-02-12T15:05:29;24.50;56.70
32201;DHT22;18701;45.588;5.288;2023-02-12T15:08:07;24.30;56.40
32201;DHT22;18701;45.588;5.288;2023-02-12T15:10:41;23.30;57.40
32201;DHT22;18701;45.588;5.288;2023-02-12T15:16:13;23.10;58.00
32201;DHT22;18701;45.588;5.288;2023-02-12T15:21:34;22.90;57.80
32201;DHT22;18701;45.588;5.288;2023-02-12T15:24:05;23.00;57.50
32201;DHT22;18701;45.588;5.288;2023-02-12T15:26:35;22.80;57.80
32201;DHT22;18701;45.588;5.288;2023-02-12T15:29:02;22.90;58.00
32201;DHT22;18701;45.588;5.288;2023-02-12T15:31:30;22.50;57.90
32201;DHT22;18701;45.588;5.288;2023-02-12T15:34:00;22.00;57.50
32201;DHT22;18701;45.588;5.288;2023-02-12T15:36:30;22.50;58.00
32201;DHT22;18701;45.588;5.288;2023-02-12T15:39:00;21.60;57.90
32201;DHT22;18701;45.588;5.288;2023-02-12T15:44:28;22.10;58.20
32201;DHT22;18701;45.588;5.288;2023-02-12T15:46:54;21.40;58.60
32201;DHT22;18701;45.588;5.288;2023-02-12T15:49:23;21.00;58.80
32201;DHT22;18701;45.588;5.288;2023-02-12T15:51:50;21.10;58.90
32201;DHT22;18701;45.588;5.288;2023-02-12T15:54:18;20.80;59.00
32201;DHT22;18701;45.588;5.288;2023-02-12T15:56:44;20.90;59.30
32201;DHT22;18701;45.588;5.288;2023-02-12T15:59:20;20.70;60.10
32201;DHT22;18701;45.588;5.288;2023-02-12T16:02:00;20.50;59.90
32201;DHT22;18701;45.588;5.288;2023-02-12T16:04:33;20.00;60.70
32201;DHT22;18701;45.588;5.288;2023-02-12T16:07:02;19.70;60.80
32201;DHT22;18701;45.588;5.288;2023-02-12T16:09:33;19.50;61.40
32201;DHT22;18701;45.588;5.288;2023-02-12T16:12:01;19.30;61.10
32201;DHT22;18701;45.588;5.288;2023-02-12T16:14:30;19.00;61.70
32201;DHT22;18701;45.588;5.288;2023-02-12T16:17:01;18.00;62.90
32201;DHT22;18701;45.588;5.288;2023-02-12T16:19:29;16.60;64.40
32201;DHT22;18701;45.588;5.288;2023-02-12T16:24:52;14.90;67.30
32201;DHT22;18701;45.588;5.288;2023-02-12T16:27:26;14.30;68.50
32201;DHT22;18701;45.588;5.288;2023-02-12T16:30:02;13.70;69.30
32201;DHT22;18701;45.588;5.288;2023-02-12T16:32:41;13.40;70.30
32201;DHT22;18701;45.588;5.288;2023-02-12T16:50:35;11.80;75.10
32201;DHT22;18701;45.588;5.288;2023-02-12T16:53:06;11.70;75.60
32201;DHT22;18701;45.588;5.288;2023-02-12T16:55:33;11.60;75.40
32201;DHT22;18701;45.588;5.288;2023-02-12T16:57:59;11.50;75.30
32201;DHT22;18701;45.588;5.288;2023-02-12T17:00:25;11.20;75.90
32201;DHT22;18701;45.588;5.288;2023-02-12T17:02:53;11.10;76.40
32201;DHT22;18701;45.588;5.288;2023-02-12T17:05:20;11.00;77.50
32201;DHT22;18701;45.588;5.288;2023-02-12T17:07:47;10.80;78.30
32201;DHT22;18701;45.588;5.288;2023-02-12T17:10:14;10.50;78.80
32201;DHT22;18701;45.588;5.288;2023-02-12T17:12:51;10.40;79.40
32201;DHT22;18701;45.588;5.288;2023-02-12T17:15:45;9.90;81.20
32201;DHT22;18701;45.588;5.288;2023-02-12T17:18:11;10.10;81.00
32201;DHT22;18701;45.588;5.288;2023-02-12T17:20:38;10.00;81.60
32201;DHT22;18701;45.588;5.288;2023-02-12T17:23:04;9.90;82.30
32201;DHT22;18701;45.588;5.288;2023-02-12T17:25:31;9.70;83.10
32201;DHT22;18701;45.588;5.288;2023-02-12T17:27:58;9.70;83.40
32201;DHT22;18701;45.588;5.288;2023-02-12T17:30:24;9.60;84.20
32201;DHT22;18701;45.588;5.288;2023-02-12T17:32:51;9.50;84.40
32201;DHT22;18701;45.588;5.288;2023-02-12T17:35:16;9.40;85.00
32201;DHT22;18701;45.588;5.288;2023-02-12T17:37:42;9.20;86.00
32201;DHT22;18701;45.588;5.288;2023-02-12T17:40:08;9.10;87.20
32201;DHT22;18701;45.588;5.288;2023-02-12T17:42:35;9.10;87.50
32201;DHT22;18701;45.588;5.288;2023-02-12T17:45:01;9.10;87.70
32201;DHT22;18701;45.588;5.288;2023-02-12T17:47:27;8.80;89.20
32201;DHT22;18701;45.588;5.288;2023-02-12T17:49:54;8.80;89.50
32201;DHT22;18701;45.588;5.288;2023-02-12T17:52:20;8.60;90.00
32201;DHT22;18701;45.588;5.288;2023-02-12T17:54:46;8.70;90.00
32201;DHT22;18701;45.588;5.288;2023-02-12T17:57:11;8.40;90.70
32201;DHT22;18701;45.588;5.288;2023-02-12T17:59:39;8.40;91.00
32201;DHT22;18701;45.588;5.288;2023-02-12T18:02:05;8.40;91.00
32201;DHT22;18701;45.588;5.288;2023-02-12T18:04:32;8.20;91.10
32201;DHT22;18701;45.588;5.288;2023-02-12T18:07:00;8.00;91.90
32201;DHT22;18701;45.588;5.288;2023-02-12T18:09:26;8.20;91.70
32201;DHT22;18701;45.588;5.288;2023-02-12T18:11:52;8.20;91.70
32201;DHT22;18701;45.588;5.288;2023-02-12T18:14:20;7.90;92.00
32201;DHT22;18701;45.588;5.288;2023-02-12T18:16:46;8.00;92.40
32201;DHT22;18701;45.588;5.288;2023-02-12T18:19:12;7.90;92.70
32201;DHT22;18701;45.588;5.288;2023-02-12T18:21:38;7.90;92.80
32201;DHT22;18701;45.588;5.288;2023-02-12T18:24:04;7.90;93.10
32201;DHT22;18701;45.588;5.288;2023-02-12T18:26:30;7.80;93.40
32201;DHT22;18701;45.588;5.288;2023-02-12T18:28:57;7.80;93.60
32201;DHT22;18701;45.588;5.288;2023-02-12T18:31:23;7.60;94.10
32201;DHT22;18701;45.588;5.288;2023-02-12T18:33:49;7.60;94.60
32201;DHT22;18701;45.588;5.288;2023-02-12T18:36:16;7.40;94.90
32201;DHT22;18701;45.588;5.288;2023-02-12T18:38:42;7.40;95.20
32201;DHT22;18701;45.588;5.288;2023-02-12T18:41:13;7.40;95.50
32201;DHT22;18701;45.588;5.288;2023-02-12T18:43:39;7.40;95.80
32201;DHT22;18701;45.588;5.288;2023-02-12T18:46:17;7.10;96.40
32201;DHT22;18701;45.588;5.288;2023-02-12T18:48:43;7.00;96.90
32201;DHT22;18701;45.588;5.288;2023-02-12T18:51:13;7.10;96.90
32201;DHT22;18701;45.588;5.288;2023-02-12T18:53:39;7.20;96.80
32201;DHT22;18701;45.588;5.288;2023-02-12T18:56:06;7.10;96.90
32201;DHT22;18701;45.588;5.288;2023-02-12T18:58:33;7.00;97.30